Saga Adventure — VRBL4 — position and weather

sailwx.info

Track history (hours):
 
Tides and Currents Weather Stations Pressure Air Temp Water Temp Dewpoint Dewpoint Depression Visibility Wind Speed Wind Dir Waves Ship Positions

Saga Adventure

Last reported at 2018-Apr-16 00:16 UTC. Time now 2018-May-21 02:36 UTC.
Position N 31°58' E 120°18'.
Warning: this ship's position is 35 days out of date.

Type: Ship. MMSI: 477076500.

Date/timePositionNaut miles runAvg speedWind from/ knotsBaromVisibWave heightAir tempDewpointWater temp
2018-Apr-16 00:16N 31°58' E 120°18'312.1
2018-Apr-16 00:00N 31°59' E 120°21'612.1
2018-Apr-15 23:30N 32°02' E 120°28'611.2
2018-Apr-15 23:00N 32°01' E 120°34'810.2
2018-Apr-15 22:15N 32°00' E 120°43'310.4
2018-Apr-15 22:00N 32°01' E 120°46'611.5
2018-Apr-15 21:30N 31°57' E 120°52'712.4
2018-Apr-15 20:58N 31°51' E 120°54'511.6
2018-Apr-15 20:30N 31°47' E 120°58'612.5
2018-Apr-15 20:00N 31°45' E 121°05'713.5
2018-Apr-15 19:30N 31°41' E 121°11'713.7
2018-Apr-15 19:00N 31°36' E 121°17'713.5
2018-Apr-15 18:30N 31°31' E 121°22'1 2.0
2018-Apr-15 17:52N 31°30' E 121°23'0 0.0
2018-Apr-15 17:30N 31°30' E 121°23'0 0.0
2018-Apr-15 15:31N 31°30' E 121°23'0 0.0
2018-Apr-15 15:00N 31°30' E 121°23'0 0.0
2018-Apr-15 14:27N 31°30' E 121°23'0 0.0
2018-Apr-15 13:57N 31°30' E 121°23'0 0.0
2018-Apr-15 13:27N 31°30' E 121°23'0 0.0
2018-Apr-15 12:39N 31°30' E 121°23'0 0.0
2018-Apr-15 12:27N 31°30' E 121°23'0 0.0
2018-Apr-15 11:24N 31°30' E 121°23'0 0.0
2018-Apr-15 11:00N 31°30' E 121°23'0 0.0
2018-Apr-15 10:28N 31°30' E 121°23'0 0.0
2018-Apr-15 09:55N 31°30' E 121°23'0 0.0
2018-Apr-15 09:31N 31°30' E 121°23'0 0.0
2018-Apr-15 08:58N 31°30' E 121°23'0 0.0
2018-Apr-15 08:31N 31°30' E 121°23'0 0.0
2018-Apr-15 07:58N 31°30' E 121°23'0 0.0
2018-Apr-15 07:27N 31°30' E 121°23'0 0.0
2018-Apr-15 06:57N 31°30' E 121°23'0 0.0
2018-Apr-15 06:28N 31°30' E 121°23'0 0.0
2018-Apr-15 06:00N 31°30' E 121°23'0 0.0
2018-Apr-15 05:27N 31°30' E 121°23'0 0.0
2018-Apr-15 04:58N 31°30' E 121°23'0 0.0
2018-Apr-15 04:31N 31°30' E 121°23'0 0.0
2018-Apr-15 04:00N 31°30' E 121°23'0 0.0
2018-Apr-15 03:30N 31°30' E 121°23'0 0.0
2018-Apr-15 02:34N 31°30' E 121°23'0 0.0
2018-Apr-15 02:27N 31°30' E 121°23'0 0.0
2018-Apr-15 01:57N 31°30' E 121°23'0 0.0
2018-Apr-15 01:31N 31°30' E 121°23'0 0.0
2018-Apr-15 00:40N 31°30' E 121°23'0 0.0
2018-Apr-15 00:28N 31°30' E 121°23'0 0.0
2018-Apr-15 00:01N 31°30' E 121°23'0 0.0
2018-Apr-14 23:30N 31°30' E 121°23'0 0.0
2018-Apr-14 23:00N 31°30' E 121°23'0 0.0
2018-Apr-14 22:30N 31°30' E 121°23'0 0.0
2018-Apr-14 22:01N 31°30' E 121°23'0 0.0
2018-Apr-14 21:30N 31°30' E 121°23'0 0.0
2018-Apr-14 21:00N 31°30' E 121°23'0 0.0
2018-Apr-14 20:28N 31°30' E 121°23'0 0.0
2018-Apr-14 20:01N 31°30' E 121°23'0 0.0
2018-Apr-14 19:31N 31°30' E 121°23'0 0.0
2018-Apr-14 18:51N 31°30' E 121°23'0 0.0
2018-Apr-14 18:31N 31°30' E 121°23'0 0.2
2018-Apr-14 18:00N 31°30' E 121°23'3 5.7
2018-Apr-14 17:30N 31°29' E 121°26'4 8.6
2018-Apr-14 17:00N 31°26' E 121°30'5 9.3
2018-Apr-14 16:30N 31°24' E 121°34'5 9.9
2018-Apr-14 15:58N 31°21' E 121°40'4 9.1
2018-Apr-14 15:30N 31°18' E 121°43'5 9.9
2018-Apr-14 15:00N 31°14' E 121°47'612.1
2018-Apr-14 14:30N 31°10' E 121°52'713.5
2018-Apr-14 14:01N 31°06' E 121°58'611.0
2018-Apr-14 13:30N 31°04' E 122°05'510.7
2018-Apr-14 13:01N 31°03' E 122°11'510.2
2018-Apr-14 12:29N 31°03' E 122°17'7 9.4
2018-Apr-14 11:42N 31°01' E 122°25'2 7.7
2018-Apr-14 11:24N 31°01' E 122°28'5 7.4
2018-Apr-14 10:40N 31°03' E 122°34'1 0.3
2018-Apr-14 07:39N 31°03' E 122°35'0 0.1
2018-Apr-14 00:40N 31°03' E 122°34'1 4.8
2018-Apr-14 00:30N 31°03' E 122°34'4 3.3
2018-Apr-13 23:25N 31°05' E 122°30'3 6.2
2018-Apr-13 22:59N 31°06' E 122°33'3 0.1
2018-Apr-12 21:40N 31°08' E 122°36'0 0.1
2018-Apr-12 20:16N 31°08' E 122°36'0 0.0
2018-Apr-12 19:53N 31°08' E 122°36'0 0.0
2018-Apr-12 18:39N 31°08' E 122°36'0 0.1
2018-Apr-12 18:27N 31°08' E 122°36'0 0.3
2018-Apr-12 17:58N 31°08' E 122°36'0 0.3
2018-Apr-12 17:27N 31°08' E 122°36'0 0.3
2018-Apr-12 16:51N 31°08' E 122°36'0 0.1
2018-Apr-12 16:27N 31°08' E 122°36'0 0.1
2018-Apr-12 14:48N 31°08' E 122°36'0 0.0
2018-Apr-12 09:37N 31°08' E 122°36'0 0.2
2018-Apr-12 09:23N 31°08' E 122°36'0 0.1
2018-Apr-12 08:58N 31°08' E 122°36'0 0.1
2018-Apr-12 08:27N 31°08' E 122°36'0 0.1
2018-Apr-12 07:09N 31°08' E 122°36'0 0.0
2018-Apr-12 04:48N 31°08' E 122°36'0 0.0
2018-Apr-12 00:06N 31°08' E 122°36'0 0.0
2018-Apr-11 23:48N 31°08' E 122°36'0 0.0
2018-Apr-11 23:30N 31°08' E 122°36'0 0.0
2018-Apr-11 21:33N 31°08' E 122°36'0 0.0
2018-Apr-11 04:40N 31°08' E 122°36'1 1.2
2018-Apr-11 04:10N 31°08' E 122°37'0 2.7
2018-Apr-11 03:59N 31°08' E 122°37'191 7.6
2018-Apr-10 03:00N 34°18' E 122°54'9112.7 130 / 261008.0 2.2 15.011.612.0
2018-Apr-09 19:49N 34°57' E 121°14'  
Track history (hours):
 
Tides and Currents Weather Stations Pressure Air Temp Water Temp Dewpoint Dewpoint Depression Visibility Wind Speed Wind Dir Waves Ship Positions

Saga Adventure

Last reported at 2018-Apr-16 00:16 UTC. Time now 2018-May-21 02:36 UTC.
Position N 31°58' E 120°18'.
Warning: this ship's position is 35 days out of date.

Type: Ship. MMSI: 477076500.

Date/timePositionNaut miles runAvg speedWind from/ knotsBaromVisibWave heightAir tempDewpointWater temp
2018-Apr-16 00:16N 31°58' E 120°18'312.1
2018-Apr-16 00:00N 31°59' E 120°21'612.1
2018-Apr-15 23:30N 32°02' E 120°28'611.2
2018-Apr-15 23:00N 32°01' E 120°34'810.2
2018-Apr-15 22:15N 32°00' E 120°43'310.4
2018-Apr-15 22:00N 32°01' E 120°46'611.5
2018-Apr-15 21:30N 31°57' E 120°52'712.4
2018-Apr-15 20:58N 31°51' E 120°54'511.6
2018-Apr-15 20:30N 31°47' E 120°58'612.5
2018-Apr-15 20:00N 31°45' E 121°05'713.5
2018-Apr-15 19:30N 31°41' E 121°11'713.7
2018-Apr-15 19:00N 31°36' E 121°17'713.5
2018-Apr-15 18:30N 31°31' E 121°22'1 2.0
2018-Apr-15 17:52N 31°30' E 121°23'0 0.0
2018-Apr-15 17:30N 31°30' E 121°23'0 0.0
2018-Apr-15 15:31N 31°30' E 121°23'0 0.0
2018-Apr-15 15:00N 31°30' E 121°23'0 0.0
2018-Apr-15 14:27N 31°30' E 121°23'0 0.0
2018-Apr-15 13:57N 31°30' E 121°23'0 0.0
2018-Apr-15 13:27N 31°30' E 121°23'0 0.0
2018-Apr-15 12:39N 31°30' E 121°23'0 0.0
2018-Apr-15 12:27N 31°30' E 121°23'0 0.0
2018-Apr-15 11:24N 31°30' E 121°23'0 0.0
2018-Apr-15 11:00N 31°30' E 121°23'0 0.0
2018-Apr-15 10:28N 31°30' E 121°23'0 0.0
2018-Apr-15 09:55N 31°30' E 121°23'0 0.0
2018-Apr-15 09:31N 31°30' E 121°23'0 0.0
2018-Apr-15 08:58N 31°30' E 121°23'0 0.0
2018-Apr-15 08:31N 31°30' E 121°23'0 0.0
2018-Apr-15 07:58N 31°30' E 121°23'0 0.0
2018-Apr-15 07:27N 31°30' E 121°23'0 0.0
2018-Apr-15 06:57N 31°30' E 121°23'0 0.0
2018-Apr-15 06:28N 31°30' E 121°23'0 0.0
2018-Apr-15 06:00N 31°30' E 121°23'0 0.0
2018-Apr-15 05:27N 31°30' E 121°23'0 0.0
2018-Apr-15 04:58N 31°30' E 121°23'0 0.0
2018-Apr-15 04:31N 31°30' E 121°23'0 0.0
2018-Apr-15 04:00N 31°30' E 121°23'0 0.0
2018-Apr-15 03:30N 31°30' E 121°23'0 0.0
2018-Apr-15 02:34N 31°30' E 121°23'0 0.0
2018-Apr-15 02:27N 31°30' E 121°23'0 0.0
2018-Apr-15 01:57N 31°30' E 121°23'0 0.0
2018-Apr-15 01:31N 31°30' E 121°23'0 0.0
2018-Apr-15 00:40N 31°30' E 121°23'0 0.0
2018-Apr-15 00:28N 31°30' E 121°23'0 0.0
2018-Apr-15 00:01N 31°30' E 121°23'0 0.0
2018-Apr-14 23:30N 31°30' E 121°23'0 0.0
2018-Apr-14 23:00N 31°30' E 121°23'0 0.0
2018-Apr-14 22:30N 31°30' E 121°23'0 0.0
2018-Apr-14 22:01N 31°30' E 121°23'0 0.0
2018-Apr-14 21:30N 31°30' E 121°23'0 0.0
2018-Apr-14 21:00N 31°30' E 121°23'0 0.0
2018-Apr-14 20:28N 31°30' E 121°23'0 0.0
2018-Apr-14 20:01N 31°30' E 121°23'0 0.0
2018-Apr-14 19:31N 31°30' E 121°23'0 0.0
2018-Apr-14 18:51N 31°30' E 121°23'0 0.0
2018-Apr-14 18:31N 31°30' E 121°23'0 0.2
2018-Apr-14 18:00N 31°30' E 121°23'3 5.7
2018-Apr-14 17:30N 31°29' E 121°26'4 8.6
2018-Apr-14 17:00N 31°26' E 121°30'5 9.3
2018-Apr-14 16:30N 31°24' E 121°34'5 9.9
2018-Apr-14 15:58N 31°21' E 121°40'4 9.1
2018-Apr-14 15:30N 31°18' E 121°43'5 9.9
2018-Apr-14 15:00N 31°14' E 121°47'612.1
2018-Apr-14 14:30N 31°10' E 121°52'713.5
2018-Apr-14 14:01N 31°06' E 121°58'611.0
2018-Apr-14 13:30N 31°04' E 122°05'510.7
2018-Apr-14 13:01N 31°03' E 122°11'510.2
2018-Apr-14 12:29N 31°03' E 122°17'7 9.4
2018-Apr-14 11:42N 31°01' E 122°25'2 7.7
2018-Apr-14 11:24N 31°01' E 122°28'5 7.4
2018-Apr-14 10:40N 31°03' E 122°34'1 0.3
2018-Apr-14 07:39N 31°03' E 122°35'0 0.1
2018-Apr-14 00:40N 31°03' E 122°34'1 4.8
2018-Apr-14 00:30N 31°03' E 122°34'4 3.3
2018-Apr-13 23:25N 31°05' E 122°30'3 6.2
2018-Apr-13 22:59N 31°06' E 122°33'3 0.1
2018-Apr-12 21:40N 31°08' E 122°36'0 0.1
2018-Apr-12 20:16N 31°08' E 122°36'0 0.0
2018-Apr-12 19:53N 31°08' E 122°36'0 0.0
2018-Apr-12 18:39N 31°08' E 122°36'0 0.1
2018-Apr-12 18:27N 31°08' E 122°36'0 0.3
2018-Apr-12 17:58N 31°08' E 122°36'0 0.3
2018-Apr-12 17:27N 31°08' E 122°36'0 0.3
2018-Apr-12 16:51N 31°08' E 122°36'0 0.1
2018-Apr-12 16:27N 31°08' E 122°36'0 0.1
2018-Apr-12 14:48N 31°08' E 122°36'0 0.0
2018-Apr-12 09:37N 31°08' E 122°36'0 0.2
2018-Apr-12 09:23N 31°08' E 122°36'0 0.1
2018-Apr-12 08:58N 31°08' E 122°36'0 0.1
2018-Apr-12 08:27N 31°08' E 122°36'0 0.1
2018-Apr-12 07:09N 31°08' E 122°36'0 0.0
2018-Apr-12 04:48N 31°08' E 122°36'0 0.0
2018-Apr-12 00:06N 31°08' E 122°36'0 0.0
2018-Apr-11 23:48N 31°08' E 122°36'0 0.0
2018-Apr-11 23:30N 31°08' E 122°36'0 0.0
2018-Apr-11 21:33N 31°08' E 122°36'0 0.0
2018-Apr-11 04:40N 31°08' E 122°36'1 1.2
2018-Apr-11 04:10N 31°08' E 122°37'0 2.7
2018-Apr-11 03:59N 31°08' E 122°37'191 7.6
2018-Apr-10 03:00N 34°18' E 122°54'9112.7 130 / 261008.0 2.2 15.011.612.0
2018-Apr-09 19:49N 34°57' E 121°14'  

Dump ship's entire track history